createdAt,value
2022-08-20T00:00:41.690Z,956.60
2022-08-20T00:03:16.984Z,924.75
2022-08-20T00:05:47.423Z,954.25
2022-08-20T00:08:14.064Z,969.40
2022-08-20T00:10:43.214Z,960.88
2022-08-20T00:13:15.124Z,964.00
2022-08-20T00:15:45.481Z,948.85
2022-08-20T00:18:12.340Z,990.50
2022-08-20T00:20:43.190Z,999.90
2022-08-20T00:23:10.723Z,999.90
2022-08-20T00:25:38.511Z,999.90
2022-08-20T00:28:06.997Z,991.92
2022-08-20T00:30:35.556Z,985.63
2022-08-20T00:33:15.965Z,955.55
2022-08-20T00:35:45.835Z,956.42
2022-08-20T00:38:13.043Z,959.03
2022-08-20T00:40:46.351Z,904.85
2022-08-20T00:43:33.626Z,912.47
2022-08-20T00:46:02.665Z,826.45
2022-08-20T00:48:32.845Z,846.67
2022-08-20T00:51:18.201Z,860.60
2022-08-20T00:53:45.224Z,823.40
2022-08-20T00:56:12.733Z,870.78
2022-08-20T00:58:42.214Z,867.75
2022-08-20T01:01:09.482Z,908.08
2022-08-20T01:03:36.362Z,906.38
2022-08-20T01:06:03.156Z,944.17
2022-08-20T01:08:29.676Z,938.67
2022-08-20T01:11:09.684Z,974.97
2022-08-20T01:13:39.558Z,985.30
2022-08-20T01:16:13.194Z,990.35
2022-08-20T01:18:40.441Z,980.58
2022-08-20T01:21:08.385Z,949.17
2022-08-20T01:23:43.526Z,974.15
2022-08-20T01:26:23.087Z,946.15
2022-08-20T01:28:54.517Z,849.30
2022-08-20T01:31:24.769Z,895.83
2022-08-20T01:33:54.296Z,871.67
2022-08-20T01:36:24.894Z,819.58
2022-08-20T01:38:54.629Z,751.70
2022-08-20T01:41:48.911Z,608.03
2022-08-20T01:44:18.542Z,416.20
2022-08-20T01:46:47.042Z,433.40
2022-08-20T01:49:34.829Z,506.45
2022-08-20T01:52:07.900Z,381.65
2022-08-20T01:54:35.514Z,475.42
2022-08-20T01:57:05.781Z,486.80
2022-08-20T01:59:32.554Z,547.30
2022-08-20T02:01:59.963Z,561.50
2022-08-20T02:04:27.040Z,521.38
2022-08-20T02:06:57.830Z,518.85
2022-08-20T02:09:29.461Z,402.05
2022-08-20T02:11:57.608Z,397.52
2022-08-20T02:14:24.186Z,427.63
2022-08-20T02:16:55.503Z,527.40
2022-08-20T02:19:40.390Z,467.60
2022-08-20T02:24:43.908Z,271.95
2022-08-20T02:27:10.592Z,371.35
2022-08-20T02:29:37.299Z,449.42
2022-08-20T02:32:26.241Z,484.55
2022-08-20T02:34:52.701Z,501.00
2022-08-20T02:37:19.194Z,468.50
2022-08-20T02:39:46.857Z,439.42
2022-08-20T02:42:13.455Z,405.67
2022-08-20T02:44:40.420Z,526.72
2022-08-20T02:47:07.505Z,593.75
2022-08-20T02:49:35.429Z,581.53
2022-08-20T02:52:02.169Z,543.70
2022-08-20T02:54:29.350Z,575.83
2022-08-20T02:56:56.163Z,564.58
2022-08-20T02:59:22.889Z,571.58
2022-08-20T03:02:00.042Z,580.78
2022-08-20T03:04:29.523Z,642.50
2022-08-20T03:06:56.530Z,687.45
2022-08-20T03:09:23.588Z,765.60
2022-08-20T03:11:50.129Z,778.40
2022-08-20T03:14:16.763Z,787.35
2022-08-20T03:16:43.265Z,794.88
2022-08-20T03:19:09.869Z,819.78
2022-08-20T03:21:36.755Z,790.35
2022-08-20T03:24:03.619Z,836.83
2022-08-20T03:26:30.127Z,806.67
2022-08-20T03:28:56.772Z,829.33
2022-08-20T03:31:23.345Z,857.80
2022-08-20T03:33:53.370Z,839.40
2022-08-20T03:36:28.285Z,823.55
2022-08-20T03:39:00.742Z,818.80
2022-08-20T03:41:28.663Z,837.88
2022-08-20T03:43:55.278Z,841.72
2022-08-20T03:46:23.373Z,838.42
2022-08-20T03:48:56.620Z,867.92
2022-08-20T03:51:27.634Z,851.00
2022-08-20T03:53:54.087Z,895.25
2022-08-20T03:56:20.559Z,926.88
2022-08-20T03:58:47.188Z,880.55
2022-08-20T04:01:44.819Z,932.15
2022-08-20T04:04:00.822Z,887.45
2022-08-20T04:06:29.567Z,917.65
2022-08-20T04:08:56.851Z,932.53
2022-08-20T04:11:24.249Z,949.97
2022-08-20T04:13:51.014Z,936.90
2022-08-20T04:16:18.074Z,940.42
2022-08-20T04:19:01.485Z,951.55
2022-08-20T04:21:33.038Z,935.72
2022-08-20T04:24:01.333Z,950.63
2022-08-20T04:26:28.449Z,939.70
2022-08-20T04:28:55.573Z,927.97
2022-08-20T04:31:25.419Z,910.38
2022-08-20T04:33:52.470Z,861.28
2022-08-20T04:36:19.026Z,869.90
2022-08-20T04:38:47.872Z,862.00
2022-08-20T04:41:22.945Z,852.25
2022-08-20T04:43:52.207Z,837.13
2022-08-20T04:46:19.286Z,845.58
2022-08-20T04:48:48.520Z,833.65
2022-08-20T04:51:18.206Z,823.55
2022-08-20T04:53:51.670Z,834.50
2022-08-20T04:56:23.456Z,832.92
2022-08-20T04:58:52.339Z,825.20
2022-08-20T05:01:19.485Z,835.47
2022-08-20T05:03:47.717Z,810.47
2022-08-20T05:06:16.165Z,815.40
2022-08-20T05:08:43.386Z,848.22
2022-08-20T05:11:33.051Z,816.55
2022-08-20T05:13:57.309Z,785.17
2022-08-20T05:16:24.475Z,777.17
2022-08-20T05:18:52.737Z,742.25
2022-08-20T05:21:20.779Z,693.47
2022-08-20T05:23:47.473Z,671.47
2022-08-20T05:26:15.730Z,600.08
2022-08-20T05:28:54.088Z,616.45
2022-08-20T05:31:31.777Z,561.72
2022-08-20T05:34:01.446Z,520.25
2022-08-20T05:36:27.932Z,523.63
2022-08-20T05:38:54.656Z,582.58
2022-08-20T05:41:27.710Z,535.70
2022-08-20T05:44:02.345Z,480.55
2022-08-20T05:46:31.457Z,454.92
2022-08-20T05:48:59.615Z,418.63
2022-08-20T05:51:27.706Z,445.92
2022-08-20T05:53:54.149Z,412.58
2022-08-20T05:56:26.633Z,393.08
2022-08-20T05:58:53.418Z,391.67
2022-08-20T06:01:20.021Z,369.83
2022-08-20T06:04:05.129Z,372.02
2022-08-20T06:06:45.723Z,341.58
2022-08-20T06:09:31.438Z,316.58
2022-08-20T06:12:04.403Z,285.40
2022-08-20T06:14:31.284Z,283.05
2022-08-20T06:17:15.376Z,310.98
2022-08-20T06:19:44.518Z,305.10
2022-08-20T06:22:19.666Z,320.13
2022-08-20T06:24:51.328Z,305.88
2022-08-20T06:27:18.361Z,343.75
2022-08-20T06:29:45.389Z,341.52
2022-08-20T06:32:11.902Z,343.13
2022-08-20T06:34:38.414Z,334.38
2022-08-20T06:37:31.527Z,307.05
2022-08-20T06:40:07.068Z,233.05
2022-08-20T06:42:33.824Z,190.15
2022-08-20T06:45:03.170Z,162.50
2022-08-20T06:47:30.369Z,139.05
2022-08-20T06:49:57.295Z,128.93
2022-08-20T06:52:51.715Z,135.13
2022-08-20T06:55:11.112Z,104.57
2022-08-20T06:57:38.425Z,91.85
2022-08-20T07:00:12.200Z,98.53
2022-08-20T07:02:38.739Z,94.35
2022-08-20T07:05:06.292Z,101.30
2022-08-20T07:07:32.874Z,104.70
2022-08-20T07:10:05.623Z,100.88
2022-08-20T07:12:32.198Z,102.72
2022-08-20T07:14:58.719Z,106.80
2022-08-20T07:17:25.319Z,107.93
2022-08-20T07:19:51.746Z,122.63
2022-08-20T07:22:18.226Z,102.20
2022-08-20T07:24:48.912Z,90.72
2022-08-20T07:27:20.604Z,97.07
2022-08-20T07:30:06.364Z,97.03
2022-08-20T07:32:39.339Z,94.63
2022-08-20T07:35:09.498Z,101.50
2022-08-20T07:37:41.996Z,94.68
2022-08-20T07:40:12.772Z,101.38
2022-08-20T07:42:40.445Z,101.72
2022-08-20T07:45:10.717Z,102.82
2022-08-20T07:47:39.282Z,100.32
2022-08-20T07:50:07.000Z,98.93
2022-08-20T07:52:35.287Z,102.22
2022-08-20T07:55:11.071Z,92.18
2022-08-20T07:57:38.498Z,92.65
2022-08-20T08:00:08.835Z,100.63
2022-08-20T08:02:36.768Z,92.97
2022-08-20T08:05:05.314Z,93.22
2022-08-20T08:07:33.535Z,90.63
2022-08-20T08:10:03.884Z,96.70
2022-08-20T08:12:38.374Z,94.13
2022-08-20T08:15:09.109Z,99.50
2022-08-20T08:17:36.465Z,100.95
2022-08-20T08:20:06.413Z,98.43
2022-08-20T08:22:33.159Z,99.05
2022-08-20T08:25:02.358Z,105.32
2022-08-20T08:27:33.400Z,97.88
2022-08-20T08:30:01.045Z,102.75
2022-08-20T08:32:28.512Z,99.53
2022-08-20T08:34:55.011Z,92.30
2022-08-20T08:37:21.490Z,90.70
2022-08-20T08:39:48.211Z,87.57
2022-08-20T08:42:33.638Z,94.45
2022-08-20T08:45:00.684Z,89.03
2022-08-20T08:47:35.866Z,87.35
2022-08-20T08:50:05.585Z,77.45
2022-08-20T08:52:35.110Z,90.13
2022-08-20T08:55:10.383Z,87.43
2022-08-20T08:57:36.870Z,91.72
2022-08-20T09:00:13.243Z,84.82
2022-08-20T09:02:42.483Z,70.18
2022-08-20T09:05:16.773Z,67.10
2022-08-20T09:07:48.177Z,60.47
2022-08-20T09:10:14.612Z,65.15
2022-08-20T09:12:45.708Z,69.70
2022-08-20T09:15:14.040Z,88.10
2022-08-20T09:17:41.421Z,90.93
2022-08-20T09:20:09.468Z,65.45
2022-08-20T09:22:35.946Z,56.03
2022-08-20T09:25:03.581Z,55.47
2022-08-20T09:27:39.332Z,54.97
2022-08-20T09:30:09.236Z,53.47
2022-08-20T09:32:35.773Z,59.00
2022-08-20T09:35:04.030Z,58.63
2022-08-20T09:37:37.454Z,54.75
2022-08-20T09:40:30.618Z,56.63
2022-08-20T09:42:59.426Z,54.35
2022-08-20T09:45:26.120Z,56.88
2022-08-20T09:47:57.010Z,55.85
2022-08-20T09:50:26.364Z,55.85
2022-08-20T09:52:54.948Z,57.28
2022-08-20T09:55:36.868Z,58.38
2022-08-20T09:58:09.458Z,56.95
2022-08-20T10:00:36.235Z,55.28
2022-08-20T10:03:03.419Z,55.42
2022-08-20T10:05:30.290Z,59.95
2022-08-20T10:07:56.863Z,52.55
2022-08-20T10:10:23.479Z,51.72
2022-08-20T10:12:54.630Z,50.45
2022-08-20T10:15:21.774Z,50.28
2022-08-20T10:17:48.369Z,51.40
2022-08-20T10:20:16.081Z,57.45
2022-08-20T10:22:42.687Z,54.22
2022-08-20T10:25:09.894Z,51.25
2022-08-20T10:27:37.226Z,48.00
2022-08-20T10:30:06.067Z,51.63
2022-08-20T10:32:32.555Z,49.78
2022-08-20T10:34:59.188Z,52.60
2022-08-20T10:37:26.366Z,47.40
2022-08-20T10:39:53.381Z,51.17
2022-08-20T10:42:20.265Z,50.08
2022-08-20T10:44:46.908Z,49.17
2022-08-20T10:47:15.694Z,56.90
2022-08-20T10:49:42.211Z,45.17
2022-08-20T10:52:08.710Z,42.75
2022-08-20T10:54:35.173Z,43.78
2022-08-20T10:57:04.864Z,42.85
2022-08-20T10:59:31.434Z,38.92
2022-08-20T11:01:57.973Z,40.85
2022-08-20T11:04:24.588Z,39.58
2022-08-20T11:06:51.069Z,40.35
2022-08-20T11:09:17.573Z,40.72
2022-08-20T11:11:44.080Z,40.20
2022-08-20T11:14:10.596Z,38.92
2022-08-20T11:16:37.498Z,40.33
2022-08-20T11:19:04.024Z,39.95
2022-08-20T11:21:31.062Z,37.33
2022-08-20T11:24:02.227Z,43.47
2022-08-20T11:26:29.327Z,47.70
2022-08-20T11:28:55.819Z,45.10
2022-08-20T11:31:22.293Z,43.08
2022-08-20T11:33:48.840Z,44.83
2022-08-20T11:36:15.292Z,49.20
2022-08-20T11:38:41.841Z,53.92
2022-08-20T11:41:08.368Z,66.00
2022-08-20T11:43:34.824Z,46.67
2022-08-20T11:46:01.352Z,39.92
2022-08-20T11:48:27.829Z,44.55
2022-08-20T11:50:54.404Z,38.35
2022-08-20T11:53:21.565Z,39.58
2022-08-20T11:55:49.141Z,21.02
2022-08-20T11:58:15.981Z,24.98
2022-08-20T12:00:42.433Z,24.13
2022-08-20T12:03:09.974Z,28.40
2022-08-20T12:05:42.819Z,28.60
2022-08-20T12:08:10.510Z,32.33
2022-08-20T12:10:54.214Z,24.92
2022-08-20T12:13:20.677Z,19.77
2022-08-20T12:15:54.348Z,26.35
2022-08-20T12:18:21.700Z,30.35
2022-08-20T12:20:53.551Z,29.27
2022-08-20T12:23:20.222Z,23.85
2022-08-20T12:25:46.682Z,19.52
2022-08-20T12:28:13.765Z,19.17
2022-08-20T12:30:40.266Z,19.45
2022-08-20T12:33:06.989Z,18.40
2022-08-20T12:35:33.911Z,15.32
2022-08-20T12:38:06.858Z,15.57
2022-08-20T12:40:34.254Z,14.88
2022-08-20T12:43:02.668Z,15.05
2022-08-20T12:45:30.205Z,14.63
2022-08-20T12:48:02.397Z,15.30
2022-08-20T12:50:31.584Z,14.98
2022-08-20T12:52:59.158Z,12.32
2022-08-20T12:55:26.007Z,15.63
2022-08-20T12:57:56.633Z,14.23
2022-08-20T13:00:29.398Z,12.20
2022-08-20T13:02:58.562Z,16.90
2022-08-20T13:05:26.542Z,13.70
2022-08-20T13:07:53.739Z,14.75
2022-08-20T13:10:24.217Z,11.85
2022-08-20T13:12:51.484Z,12.45
2022-08-20T13:15:18.639Z,11.27
2022-08-20T13:17:45.096Z,11.90
2022-08-20T13:20:15.253Z,15.95
2022-08-20T13:22:42.488Z,12.73
2022-08-20T13:25:10.473Z,11.63
2022-08-20T13:27:40.562Z,11.57
2022-08-20T13:30:09.387Z,12.30
2022-08-20T13:32:35.994Z,13.18
2022-08-20T13:35:02.653Z,11.32
2022-08-20T13:37:30.194Z,13.00
2022-08-20T13:39:58.720Z,10.88
2022-08-20T13:42:26.862Z,9.95
2022-08-20T13:44:54.137Z,11.77
2022-08-20T13:47:25.090Z,10.40
2022-08-20T13:50:13.841Z,11.32
2022-08-20T13:52:42.554Z,10.27
2022-08-20T13:55:12.918Z,11.70
2022-08-20T13:57:40.112Z,11.77
2022-08-20T14:00:12.384Z,12.70
2022-08-20T14:02:40.162Z,11.52
2022-08-20T14:05:07.803Z,10.70
2022-08-20T14:07:34.693Z,11.32
2022-08-20T14:10:13.745Z,11.43
2022-08-20T14:12:40.620Z,11.65
2022-08-20T14:15:11.690Z,11.38
2022-08-20T14:17:41.772Z,12.68
2022-08-20T14:20:11.987Z,10.00
2022-08-20T14:22:39.194Z,10.90
2022-08-20T14:25:08.032Z,11.70
2022-08-20T14:27:35.037Z,11.02
2022-08-20T14:30:03.207Z,11.27
2022-08-20T14:32:29.796Z,11.88
2022-08-20T14:34:59.124Z,11.43
2022-08-20T14:37:34.846Z,11.73
2022-08-20T14:40:03.008Z,12.02
2022-08-20T14:42:30.529Z,12.32
2022-08-20T14:44:58.926Z,12.55
2022-08-20T14:47:28.826Z,11.65
2022-08-20T14:49:57.877Z,12.20
2022-08-20T14:52:28.190Z,10.55
2022-08-20T14:54:55.230Z,14.82
2022-08-20T14:57:23.005Z,14.95
2022-08-20T14:59:52.665Z,12.85
2022-08-20T15:02:19.286Z,13.55
2022-08-20T15:04:52.235Z,12.73
2022-08-20T15:07:27.584Z,12.30
2022-08-20T15:09:55.329Z,12.73
2022-08-20T15:12:22.586Z,12.30
2022-08-20T15:14:49.193Z,15.70
2022-08-20T15:17:27.898Z,17.83
2022-08-20T15:19:55.077Z,12.35
2022-08-20T15:22:22.769Z,12.50
2022-08-20T15:24:49.749Z,14.10
2022-08-20T15:27:25.300Z,12.65
2022-08-20T15:29:53.113Z,13.32
2022-08-20T15:32:20.601Z,12.90
2022-08-20T15:34:47.640Z,13.65
2022-08-20T15:37:23.736Z,14.70
2022-08-20T15:39:51.509Z,14.32
2022-08-20T15:42:21.090Z,12.80
2022-08-20T15:44:47.724Z,12.80
2022-08-20T15:47:21.508Z,14.43
2022-08-20T15:49:50.505Z,13.15
2022-08-20T15:52:17.910Z,12.45
2022-08-20T15:54:45.611Z,14.00
2022-08-20T15:57:25.076Z,17.10
2022-08-20T16:00:10.075Z,15.32
2022-08-20T16:02:51.952Z,17.55
2022-08-20T16:05:36.894Z,18.70
2022-08-20T16:10:41.770Z,15.98
2022-08-20T16:13:19.522Z,18.08
2022-08-20T16:15:49.620Z,15.70
2022-08-20T16:18:30.072Z,16.13
2022-08-20T16:20:58.820Z,16.27
2022-08-20T16:23:32.814Z,12.27
2022-08-20T16:26:14.774Z,15.73
2022-08-20T16:28:57.454Z,15.68
2022-08-20T16:31:28.865Z,17.17
2022-08-20T16:34:32.865Z,16.52
2022-08-20T16:37:17.730Z,21.77
2022-08-20T16:40:15.301Z,19.63
2022-08-20T16:42:46.429Z,19.90
2022-08-20T16:45:26.688Z,19.27
2022-08-20T16:47:57.394Z,17.23
2022-08-20T16:50:38.269Z,19.00
2022-08-20T16:53:05.314Z,19.63
2022-08-20T16:55:32.473Z,18.60
2022-08-20T16:57:59.189Z,18.05
2022-08-20T17:00:35.278Z,17.17
2022-08-20T17:03:19.069Z,15.95
2022-08-20T17:06:00.437Z,13.93
2022-08-20T17:08:34.345Z,15.70
2022-08-20T17:11:14.472Z,13.30
2022-08-20T17:13:44.351Z,10.38
2022-08-20T17:16:13.996Z,10.77
2022-08-20T17:18:49.617Z,9.68
2022-08-20T17:21:28.559Z,10.43
2022-08-20T17:24:01.040Z,11.88
2022-08-20T17:26:42.429Z,11.85
2022-08-20T17:29:17.408Z,13.52
2022-08-20T17:32:09.981Z,11.60
2022-08-20T17:34:48.760Z,15.23
2022-08-20T17:37:29.369Z,16.45
2022-08-20T17:40:15.060Z,13.60
2022-08-20T17:42:48.669Z,16.65
2022-08-20T17:45:27.384Z,15.07
2022-08-20T17:47:58.143Z,11.98
2022-08-20T17:50:36.929Z,12.93
2022-08-20T17:53:11.443Z,10.80
2022-08-20T17:55:40.082Z,15.18
2022-08-20T17:58:12.710Z,11.50
2022-08-20T18:00:39.670Z,15.82
2022-08-20T18:03:27.007Z,11.57
2022-08-20T18:05:58.117Z,15.60
2022-08-20T18:08:49.016Z,16.00
2022-08-20T18:11:27.065Z,13.02
2022-08-20T18:13:59.648Z,13.23
2022-08-20T18:16:30.498Z,12.02
2022-08-20T18:19:08.511Z,11.27
2022-08-20T18:22:06.425Z,10.40
2022-08-20T18:24:54.078Z,12.45
2022-08-20T18:27:25.356Z,12.48
2022-08-20T18:29:59.436Z,12.65
2022-08-20T18:32:37.992Z,9.63
2022-08-20T18:35:31.091Z,10.77
2022-08-20T18:37:57.767Z,9.57
2022-08-20T18:40:31.100Z,10.30
2022-08-20T18:43:10.846Z,11.05
2022-08-20T18:45:37.406Z,11.63
2022-08-20T18:48:05.373Z,10.73
2022-08-20T18:50:40.927Z,11.35
2022-08-20T18:53:17.343Z,11.30
2022-08-20T18:55:47.098Z,9.82
2022-08-20T18:58:35.386Z,9.15
2022-08-20T19:01:04.954Z,12.60
2022-08-20T19:03:41.509Z,9.60
2022-08-20T19:06:22.020Z,11.60
2022-08-20T19:08:53.644Z,13.20
2022-08-20T19:11:57.138Z,13.98
2022-08-20T19:14:44.274Z,16.27
2022-08-20T19:17:18.026Z,12.88
2022-08-20T19:19:44.458Z,14.07
2022-08-20T19:22:21.142Z,14.93
2022-08-20T19:24:56.644Z,14.38
2022-08-20T19:27:23.864Z,14.63
2022-08-20T19:29:56.931Z,14.95
2022-08-20T19:32:29.433Z,14.52
2022-08-20T19:35:02.139Z,14.50
2022-08-20T19:37:39.867Z,15.65
2022-08-20T19:40:29.414Z,19.08
2022-08-20T19:42:59.360Z,17.40
2022-08-20T19:45:39.983Z,15.82
2022-08-20T19:48:06.442Z,15.43
2022-08-20T19:50:57.724Z,14.43
2022-08-20T19:53:31.063Z,16.70
2022-08-20T19:56:04.406Z,17.67
2022-08-20T19:58:32.650Z,18.10
2022-08-20T20:01:01.777Z,19.30
2022-08-20T20:03:35.676Z,19.63
2022-08-20T20:06:18.179Z,22.73
2022-08-20T20:09:02.117Z,22.10
2022-08-20T20:11:34.727Z,22.85
2022-08-20T20:14:13.032Z,24.38
2022-08-20T20:16:41.148Z,22.40
2022-08-20T20:19:28.693Z,20.52
2022-08-20T20:22:20.108Z,21.60
2022-08-20T20:24:57.638Z,22.20
2022-08-20T20:27:29.023Z,21.23
2022-08-20T20:30:02.428Z,20.13
2022-08-20T20:32:30.355Z,19.73
2022-08-20T20:34:59.262Z,20.13
2022-08-20T20:37:50.087Z,21.60
2022-08-20T20:40:30.892Z,19.05
2022-08-20T20:43:07.933Z,20.33
2022-08-20T20:45:38.423Z,20.83
2022-08-20T20:48:13.929Z,21.27
2022-08-20T20:50:40.548Z,21.73
2022-08-20T20:53:07.344Z,20.88
2022-08-20T20:55:37.338Z,20.75
2022-08-20T20:58:04.427Z,22.85
2022-08-20T21:00:34.017Z,21.23
2022-08-20T21:03:02.732Z,21.45
2022-08-20T21:05:30.544Z,22.77
2022-08-20T21:08:00.045Z,23.13
2022-08-20T21:10:32.068Z,23.85
2022-08-20T21:12:59.765Z,22.88
2022-08-20T21:15:26.915Z,24.20
2022-08-20T21:17:53.797Z,25.92
2022-08-20T21:20:22.521Z,24.15
2022-08-20T21:22:49.391Z,26.23
2022-08-20T21:25:16.147Z,22.70
2022-08-20T21:27:47.061Z,24.83
2022-08-20T21:30:14.763Z,22.73
2022-08-20T21:32:41.353Z,24.33
2022-08-20T21:35:08.711Z,21.80
2022-08-20T21:37:35.701Z,20.05
2022-08-20T21:40:03.485Z,21.35
2022-08-20T21:42:30.276Z,22.75
2022-08-20T21:44:58.002Z,18.27
2022-08-20T21:47:25.167Z,19.02
2022-08-20T21:49:52.194Z,18.85
2022-08-20T21:52:18.987Z,17.88
2022-08-20T21:54:45.423Z,22.40
2022-08-20T21:57:20.423Z,18.75
2022-08-20T21:59:47.467Z,22.58
2022-08-20T22:02:15.408Z,24.33
2022-08-20T22:04:41.903Z,20.98
2022-08-20T22:07:08.680Z,21.98
2022-08-20T22:09:36.389Z,24.52
2022-08-20T22:12:03.770Z,25.13
2022-08-20T22:14:30.784Z,25.65
2022-08-20T22:16:58.031Z,25.95
2022-08-20T22:19:24.952Z,22.52
2022-08-20T22:21:53.333Z,27.20
2022-08-20T22:24:19.862Z,29.75
2022-08-20T22:26:46.344Z,26.42
2022-08-20T22:29:12.937Z,23.45
2022-08-20T22:31:42.645Z,23.27
2022-08-20T22:34:11.298Z,22.67
2022-08-20T22:36:38.365Z,23.45
2022-08-20T22:39:05.415Z,24.52
2022-08-20T22:41:32.221Z,24.30
2022-08-20T22:43:58.761Z,25.70
2022-08-20T22:46:28.541Z,24.13
2022-08-20T22:48:56.224Z,26.65
2022-08-20T22:52:06.455Z,23.27
2022-08-20T22:54:34.228Z,22.38
2022-08-20T22:57:00.958Z,26.27
2022-08-20T22:59:27.576Z,33.28
2022-08-20T23:01:54.472Z,31.20
2022-08-20T23:04:34.171Z,24.73
2022-08-20T23:07:02.626Z,25.33
2022-08-20T23:09:30.257Z,26.27
2022-08-20T23:11:56.969Z,23.17
2022-08-20T23:14:23.399Z,25.50
2022-08-20T23:17:13.584Z,34.55
2022-08-20T23:19:41.364Z,27.83
2022-08-20T23:22:08.468Z,33.45
2022-08-20T23:24:35.962Z,32.88
2022-08-20T23:27:04.793Z,37.78
2022-08-20T23:29:31.392Z,33.67
2022-08-20T23:31:58.353Z,29.90
2022-08-20T23:34:25.959Z,32.58
2022-08-20T23:36:53.907Z,33.35
2022-08-20T23:39:20.637Z,30.70
2022-08-20T23:41:48.117Z,29.27
2022-08-20T23:44:26.521Z,30.90
2022-08-20T23:47:01.155Z,30.45
2022-08-20T23:49:29.926Z,30.08
2022-08-20T23:51:57.872Z,34.35
2022-08-20T23:54:24.326Z,34.47
2022-08-20T23:56:50.835Z,32.35
2022-08-20T23:59:17.630Z,34.35
